createdAt,value
2022-10-31T00:01:38.494Z,34.40
2022-10-31T00:04:08.637Z,34.80
2022-10-31T00:06:40.321Z,36.70
2022-10-31T00:09:10.627Z,33.83
2022-10-31T00:11:37.704Z,36.17
2022-10-31T00:14:05.123Z,37.70
2022-10-31T00:16:32.468Z,35.00
2022-10-31T00:19:02.791Z,36.00
2022-10-31T00:21:32.739Z,35.17
2022-10-31T00:24:01.091Z,34.08
2022-10-31T00:26:32.471Z,35.22
2022-10-31T00:29:00.869Z,34.05
2022-10-31T00:31:30.802Z,35.53
2022-10-31T00:34:03.890Z,35.53
2022-10-31T00:36:35.802Z,34.63
2022-10-31T00:39:06.069Z,34.28
2022-10-31T00:41:33.345Z,33.90
2022-10-31T00:44:02.936Z,34.65
2022-10-31T00:46:32.410Z,37.70
2022-10-31T00:49:02.096Z,38.55
2022-10-31T00:51:31.465Z,38.30
2022-10-31T00:53:59.581Z,33.30
2022-10-31T00:56:28.777Z,34.28
2022-10-31T00:58:57.256Z,34.75
2022-10-31T01:05:15.499Z,34.97
2022-10-31T01:07:43.199Z,34.83
2022-10-31T01:10:14.442Z,35.15
2022-10-31T01:12:43.900Z,35.33
2022-10-31T01:15:13.976Z,33.40
2022-10-31T01:17:43.501Z,38.03
2022-10-31T01:20:13.943Z,35.88
2022-10-31T01:22:43.335Z,37.85
2022-10-31T01:25:11.257Z,37.28
2022-10-31T01:27:38.472Z,34.70
2022-10-31T01:30:11.082Z,35.05
2022-10-31T01:32:40.646Z,34.85
2022-10-31T01:35:08.077Z,34.95
2022-10-31T01:37:37.514Z,37.17
2022-10-31T01:40:07.755Z,36.00
2022-10-31T01:42:35.080Z,34.33
2022-10-31T01:45:07.182Z,37.55
2022-10-31T01:47:41.636Z,37.08
2022-10-31T01:50:27.179Z,39.35
2022-10-31T01:53:01.421Z,51.92
2022-10-31T01:58:07.294Z,51.13
2022-10-31T02:00:37.016Z,64.75
2022-10-31T02:03:06.603Z,143.88
2022-10-31T02:05:36.600Z,66.55
2022-10-31T02:08:18.932Z,71.68
2022-10-31T02:10:50.803Z,41.63
2022-10-31T02:13:19.752Z,84.18
2022-10-31T02:15:53.595Z,77.30
2022-10-31T02:18:22.818Z,66.23
2022-10-31T02:21:18.253Z,70.07
2022-10-31T02:23:50.419Z,74.32
2022-10-31T02:26:36.761Z,52.13
2022-10-31T02:29:11.557Z,62.38
2022-10-31T02:31:53.370Z,40.83
2022-10-31T02:34:34.683Z,39.47
2022-10-31T02:37:15.123Z,40.40
2022-10-31T02:39:57.650Z,44.53
2022-10-31T02:42:50.320Z,41.28
2022-10-31T02:45:34.587Z,44.17
2022-10-31T02:48:13.457Z,35.55
2022-10-31T02:50:49.321Z,40.70
2022-10-31T02:53:17.053Z,35.92
2022-10-31T02:55:48.195Z,38.33
2022-10-31T02:58:25.105Z,36.33
2022-10-31T03:01:05.636Z,39.00
2022-10-31T03:04:00.441Z,36.80
2022-10-31T03:06:36.175Z,38.05
2022-10-31T03:09:15.661Z,56.97
2022-10-31T03:12:04.584Z,53.70
2022-10-31T03:14:46.284Z,70.68
2022-10-31T03:17:31.137Z,69.07
2022-10-31T03:20:07.460Z,77.13
2022-10-31T03:22:40.800Z,81.43
2022-10-31T03:25:09.231Z,76.38
2022-10-31T03:27:40.676Z,70.65
2022-10-31T03:30:11.654Z,66.45
2022-10-31T03:32:56.870Z,67.10
2022-10-31T03:35:27.320Z,60.85
2022-10-31T03:37:56.337Z,40.63
2022-10-31T03:40:28.777Z,41.03
2022-10-31T03:43:00.935Z,38.92
2022-10-31T03:45:31.616Z,36.33
2022-10-31T03:48:01.676Z,37.95
2022-10-31T03:50:46.878Z,37.45
2022-10-31T03:53:48.102Z,41.85
2022-10-31T03:56:33.321Z,38.70
2022-10-31T03:59:23.652Z,38.85
2022-10-31T04:01:59.095Z,37.45
2022-10-31T04:04:27.821Z,36.42
2022-10-31T04:07:00.470Z,37.17
2022-10-31T04:09:34.240Z,37.58
2022-10-31T04:12:06.341Z,37.08
2022-10-31T04:14:41.349Z,34.35
2022-10-31T04:17:14.230Z,34.88
2022-10-31T04:19:46.052Z,34.88
2022-10-31T04:22:14.170Z,34.70
2022-10-31T04:24:42.024Z,31.67
2022-10-31T04:27:14.207Z,32.15
2022-10-31T04:29:45.605Z,31.10
2022-10-31T04:32:18.611Z,32.67
2022-10-31T04:34:52.729Z,32.92
2022-10-31T04:39:49.498Z,31.92
2022-10-31T04:42:49.069Z,32.92
2022-10-31T04:45:20.100Z,33.17
2022-10-31T04:47:51.561Z,32.05
2022-10-31T04:50:19.184Z,33.08
2022-10-31T04:52:48.943Z,33.20
2022-10-31T04:55:19.394Z,31.92
2022-10-31T04:58:07.410Z,32.90
2022-10-31T05:00:34.636Z,32.90
2022-10-31T05:03:05.667Z,33.72
2022-10-31T05:05:33.471Z,36.83
2022-10-31T05:08:04.029Z,33.42
2022-10-31T05:10:32.936Z,32.85
2022-10-31T05:13:05.129Z,32.88
2022-10-31T05:15:51.265Z,35.10
2022-10-31T05:18:22.187Z,35.83
2022-10-31T05:21:34.242Z,32.88
2022-10-31T05:24:05.300Z,34.15
2022-10-31T05:26:38.163Z,35.30
2022-10-31T05:29:05.487Z,36.47
2022-10-31T05:31:32.756Z,36.65
2022-10-31T05:34:00.305Z,36.30
2022-10-31T05:36:53.245Z,39.42
2022-10-31T05:39:26.050Z,50.13
2022-10-31T05:41:59.079Z,40.97
2022-10-31T05:44:27.906Z,39.05
2022-10-31T05:47:15.301Z,42.40
2022-10-31T05:50:04.847Z,40.67
2022-10-31T05:52:32.004Z,38.08
2022-10-31T05:55:09.441Z,36.03
2022-10-31T05:57:40.013Z,36.08
2022-10-31T06:00:14.347Z,36.58
2022-10-31T06:02:49.182Z,36.38
2022-10-31T06:05:35.613Z,36.97
2022-10-31T06:08:07.657Z,36.13
2022-10-31T06:10:35.265Z,35.65
2022-10-31T06:13:02.451Z,37.72
2022-10-31T06:15:48.122Z,33.45
2022-10-31T06:18:20.157Z,33.22
2022-10-31T06:20:50.966Z,34.00
2022-10-31T06:23:22.917Z,33.20
2022-10-31T06:25:57.794Z,33.97
2022-10-31T06:28:25.028Z,34.67
2022-10-31T06:31:12.890Z,35.45
2022-10-31T06:33:42.835Z,33.95
2022-10-31T06:36:11.150Z,36.88
2022-10-31T06:38:40.756Z,34.65
2022-10-31T06:41:10.193Z,36.28
2022-10-31T06:43:48.989Z,34.70
2022-10-31T06:46:48.701Z,32.53
2022-10-31T06:49:35.737Z,32.53
2022-10-31T06:52:10.357Z,32.08
2022-10-31T06:54:37.507Z,32.67
2022-10-31T06:57:07.639Z,31.75
2022-10-31T06:59:34.842Z,30.30
2022-10-31T07:02:26.277Z,31.80
2022-10-31T07:04:53.815Z,31.38
2022-10-31T07:07:23.564Z,34.95
2022-10-31T07:09:51.571Z,36.72
2022-10-31T07:12:25.889Z,34.28
2022-10-31T07:15:02.966Z,33.80
2022-10-31T07:17:32.931Z,32.30
2022-10-31T07:20:02.144Z,31.90
2022-10-31T07:22:38.192Z,31.98
2022-10-31T07:25:08.599Z,35.72
2022-10-31T07:27:59.234Z,34.67
2022-10-31T07:30:27.383Z,35.20
2022-10-31T07:33:01.952Z,34.40
2022-10-31T07:36:04.845Z,37.70
2022-10-31T07:38:34.667Z,39.15
2022-10-31T07:41:04.779Z,39.75
2022-10-31T07:43:38.180Z,39.42
2022-10-31T07:46:17.268Z,41.25
2022-10-31T07:49:09.489Z,41.00
2022-10-31T07:52:00.290Z,41.72
2022-10-31T07:54:46.041Z,43.72
2022-10-31T07:57:14.597Z,44.03
2022-10-31T07:59:45.709Z,44.17
2022-10-31T08:02:15.143Z,45.20
2022-10-31T08:04:49.252Z,45.08
2022-10-31T08:07:57.737Z,44.78
2022-10-31T08:10:27.063Z,45.03
2022-10-31T08:13:17.017Z,43.45
2022-10-31T08:15:51.256Z,45.72
2022-10-31T08:18:19.526Z,46.25
2022-10-31T08:20:49.195Z,45.15
2022-10-31T08:23:17.032Z,44.05
2022-10-31T08:25:47.871Z,42.13
2022-10-31T08:28:17.996Z,39.00
2022-10-31T08:30:48.419Z,48.42
2022-10-31T08:33:34.155Z,44.80
2022-10-31T08:36:35.992Z,43.97
2022-10-31T08:39:12.221Z,46.13
2022-10-31T08:41:42.516Z,44.35
2022-10-31T08:44:17.689Z,41.30
2022-10-31T08:46:45.062Z,38.38
2022-10-31T08:49:12.357Z,40.25
2022-10-31T08:51:43.600Z,40.72
2022-10-31T08:54:12.906Z,35.80
2022-10-31T08:57:03.434Z,36.38
2022-10-31T08:59:42.857Z,36.00
2022-10-31T09:02:29.274Z,38.97
2022-10-31T09:05:02.380Z,38.67
2022-10-31T09:07:32.404Z,39.00
2022-10-31T09:10:01.765Z,35.80
2022-10-31T09:12:35.455Z,38.28
2022-10-31T09:15:23.954Z,35.90
2022-10-31T09:17:59.927Z,35.47
2022-10-31T09:20:39.194Z,36.72
2022-10-31T09:23:10.850Z,36.42
2022-10-31T09:25:40.167Z,37.83
2022-10-31T09:28:26.257Z,38.15
2022-10-31T09:30:55.427Z,44.78
2022-10-31T09:33:43.162Z,52.45
2022-10-31T09:36:28.921Z,48.35
2022-10-31T09:38:56.804Z,50.47
2022-10-31T09:41:59.462Z,67.50
2022-10-31T09:44:58.291Z,95.30
2022-10-31T09:48:05.236Z,85.35
2022-10-31T09:50:41.334Z,73.82
2022-10-31T09:53:41.685Z,45.15
2022-10-31T09:56:19.050Z,49.67
2022-10-31T09:58:49.307Z,43.67
2022-10-31T10:01:33.530Z,44.85
2022-10-31T10:04:15.660Z,41.28
2022-10-31T10:07:10.830Z,40.40
2022-10-31T10:09:46.114Z,38.38
2022-10-31T10:13:09.098Z,39.78
2022-10-31T10:16:15.360Z,39.22
2022-10-31T10:19:11.122Z,39.92
2022-10-31T10:21:51.064Z,40.22
2022-10-31T10:24:56.776Z,39.53
2022-10-31T10:27:48.393Z,38.72
2022-10-31T10:30:22.171Z,39.28
2022-10-31T10:32:59.470Z,38.40
2022-10-31T10:35:54.058Z,40.40
2022-10-31T10:38:26.733Z,40.97
2022-10-31T10:40:57.756Z,38.65
2022-10-31T10:43:36.679Z,38.85
2022-10-31T10:46:28.337Z,42.80
2022-10-31T10:49:21.764Z,41.03
2022-10-31T10:52:13.118Z,41.92
2022-10-31T10:55:11.745Z,41.03
2022-10-31T10:58:20.178Z,40.38
2022-10-31T11:00:51.225Z,41.97
2022-10-31T11:03:21.400Z,41.83
2022-10-31T11:06:00.041Z,40.67
2022-10-31T11:08:37.624Z,38.63
2022-10-31T11:11:19.823Z,42.90
2022-10-31T11:13:55.630Z,43.13
2022-10-31T11:16:31.021Z,41.45
2022-10-31T11:19:26.414Z,44.55
2022-10-31T11:21:56.786Z,44.38
2022-10-31T11:24:28.993Z,44.90
2022-10-31T11:27:23.282Z,45.33
2022-10-31T11:29:58.274Z,43.00
2022-10-31T11:32:29.413Z,46.13
2022-10-31T11:35:02.165Z,46.50
2022-10-31T11:37:33.749Z,45.13
2022-10-31T11:40:05.926Z,41.83
2022-10-31T11:42:44.556Z,41.88
2022-10-31T11:45:30.955Z,40.78
2022-10-31T11:48:02.544Z,42.33
2022-10-31T11:50:42.604Z,42.85
2022-10-31T11:53:30.554Z,41.72
2022-10-31T11:56:14.787Z,43.08
2022-10-31T11:58:43.706Z,45.10
2022-10-31T12:01:27.446Z,45.67
2022-10-31T12:04:13.990Z,46.00
2022-10-31T12:06:48.530Z,44.33
2022-10-31T12:09:30.307Z,43.28
2022-10-31T12:12:03.595Z,44.92
2022-10-31T12:14:55.520Z,43.47
2022-10-31T12:17:46.165Z,43.63
2022-10-31T12:20:25.360Z,43.70
2022-10-31T12:23:07.553Z,39.08
2022-10-31T12:25:44.491Z,41.67
2022-10-31T12:28:55.200Z,44.55
2022-10-31T12:31:39.964Z,44.20
2022-10-31T12:37:26.949Z,43.10
2022-10-31T12:40:08.625Z,40.35
2022-10-31T12:42:39.410Z,41.95
2022-10-31T12:45:46.038Z,43.33
2022-10-31T12:48:36.069Z,42.70
2022-10-31T12:51:38.051Z,42.30
2022-10-31T12:54:08.252Z,41.33
2022-10-31T12:56:47.774Z,41.58
2022-10-31T12:59:38.293Z,40.15
2022-10-31T13:02:25.807Z,41.95
2022-10-31T13:05:13.314Z,40.55
2022-10-31T13:07:44.779Z,42.85
2022-10-31T13:10:20.683Z,44.40
2022-10-31T13:12:51.673Z,42.75
2022-10-31T13:16:10.315Z,45.13
2022-10-31T13:18:51.046Z,49.00
2022-10-31T13:21:43.739Z,49.13
2022-10-31T13:24:22.143Z,44.78
2022-10-31T13:26:54.047Z,42.08
2022-10-31T13:29:48.028Z,45.42
2022-10-31T13:32:16.955Z,44.00
2022-10-31T13:34:51.736Z,42.05
2022-10-31T13:37:36.298Z,40.63
2022-10-31T13:40:17.137Z,43.70
2022-10-31T13:43:00.205Z,44.97
2022-10-31T13:45:27.966Z,43.70
2022-10-31T13:48:02.299Z,45.65
2022-10-31T13:50:32.166Z,41.22
2022-10-31T13:53:19.762Z,43.72
2022-10-31T13:56:02.995Z,48.78
2022-10-31T13:58:32.123Z,44.70
2022-10-31T14:01:11.737Z,44.33
2022-10-31T14:06:59.097Z,42.38
2022-10-31T14:09:39.416Z,42.95
2022-10-31T14:12:33.834Z,43.20
2022-10-31T14:15:17.806Z,43.95
2022-10-31T14:17:53.661Z,42.25
2022-10-31T14:20:41.001Z,42.58
2022-10-31T14:23:31.571Z,43.63
2022-10-31T14:26:19.977Z,45.28
2022-10-31T14:28:53.708Z,46.15
2022-10-31T14:31:35.955Z,45.75
2022-10-31T14:34:28.244Z,45.22
2022-10-31T14:37:03.880Z,45.05
2022-10-31T14:40:04.826Z,43.15
2022-10-31T14:42:53.857Z,46.50
2022-10-31T14:45:50.658Z,41.65
2022-10-31T14:48:39.041Z,50.00
2022-10-31T14:51:27.282Z,53.10
2022-10-31T14:54:01.550Z,51.75
2022-10-31T14:56:36.936Z,50.35
2022-10-31T14:59:14.216Z,48.50
2022-10-31T15:01:57.349Z,49.63
2022-10-31T15:04:30.064Z,51.65
2022-10-31T15:07:24.460Z,50.95
2022-10-31T15:10:00.846Z,53.22
2022-10-31T15:12:38.606Z,53.08
2022-10-31T15:15:20.315Z,59.05
2022-10-31T15:17:56.348Z,52.55
2022-10-31T15:20:32.512Z,54.80
2022-10-31T15:23:01.344Z,51.67
2022-10-31T15:25:35.136Z,48.35
2022-10-31T15:28:15.704Z,50.25
2022-10-31T15:30:59.236Z,47.85
2022-10-31T15:33:33.640Z,50.08
2022-10-31T15:36:19.802Z,67.60
2022-10-31T15:38:59.544Z,50.25
2022-10-31T15:41:31.941Z,52.92
2022-10-31T15:44:13.128Z,53.15
2022-10-31T15:46:40.721Z,52.60
2022-10-31T15:49:27.517Z,50.63
2022-10-31T15:51:55.000Z,46.03
2022-10-31T15:54:22.836Z,49.25
2022-10-31T15:56:50.091Z,50.13
2022-10-31T15:59:28.869Z,52.70
2022-10-31T16:02:09.448Z,149.50
2022-10-31T16:04:37.213Z,57.05
2022-10-31T16:07:20.166Z,52.13
2022-10-31T16:09:59.153Z,48.88
2022-10-31T16:12:35.662Z,50.08
2022-10-31T16:15:07.936Z,49.78
2022-10-31T16:17:35.057Z,54.60
2022-10-31T16:20:07.866Z,52.33
2022-10-31T16:22:38.083Z,52.67
2022-10-31T16:25:36.472Z,54.10
2022-10-31T16:28:30.207Z,50.95
2022-10-31T16:31:02.018Z,52.63
2022-10-31T16:33:34.251Z,81.57
2022-10-31T16:36:22.704Z,105.20
2022-10-31T16:38:51.465Z,66.50
2022-10-31T16:41:18.766Z,61.13
2022-10-31T16:43:48.935Z,58.92
2022-10-31T16:46:29.659Z,54.10
2022-10-31T16:48:59.977Z,53.47
2022-10-31T16:51:31.709Z,53.63
2022-10-31T16:54:01.241Z,50.72
2022-10-31T16:56:34.301Z,60.63
2022-10-31T16:59:08.229Z,115.75
2022-10-31T17:01:37.453Z,103.75
2022-10-31T17:04:04.609Z,144.85
2022-10-31T17:06:31.955Z,80.75
2022-10-31T17:08:59.580Z,87.80
2022-10-31T17:11:27.584Z,83.80
2022-10-31T17:13:55.713Z,128.82
2022-10-31T17:16:25.705Z,99.57
2022-10-31T17:18:52.800Z,86.75
2022-10-31T17:21:24.761Z,109.55
2022-10-31T17:23:54.113Z,80.85
2022-10-31T17:26:24.332Z,80.38
2022-10-31T17:28:51.433Z,136.70
2022-10-31T17:31:29.345Z,201.05
2022-10-31T17:34:02.298Z,88.30
2022-10-31T17:36:34.411Z,132.48
2022-10-31T17:39:01.920Z,79.80
2022-10-31T17:41:34.519Z,60.42
2022-10-31T17:44:04.734Z,73.32
2022-10-31T17:46:32.077Z,71.90
2022-10-31T17:49:01.328Z,67.75
2022-10-31T17:51:28.771Z,58.15
2022-10-31T17:53:55.862Z,64.10
2022-10-31T17:56:26.625Z,69.10
2022-10-31T17:58:58.115Z,83.63
2022-10-31T18:01:25.757Z,66.93
2022-10-31T18:03:52.953Z,84.30
2022-10-31T18:06:20.931Z,65.85
2022-10-31T18:08:48.185Z,63.75
2022-10-31T18:11:21.847Z,61.97
2022-10-31T18:13:56.314Z,76.53
2022-10-31T18:16:29.372Z,136.43
2022-10-31T18:18:59.823Z,69.13
2022-10-31T18:21:27.693Z,62.70
2022-10-31T18:23:59.006Z,62.65
2022-10-31T18:26:28.018Z,65.07
2022-10-31T18:28:55.482Z,124.45
2022-10-31T18:31:25.683Z,123.85
2022-10-31T18:33:57.181Z,142.63
2022-10-31T18:36:27.580Z,66.20
2022-10-31T18:38:54.962Z,64.60
2022-10-31T18:41:25.771Z,100.90
2022-10-31T18:43:59.865Z,119.22
2022-10-31T18:46:29.566Z,107.47
2022-10-31T18:48:57.348Z,93.90
2022-10-31T18:51:27.891Z,74.00
2022-10-31T18:53:59.905Z,66.22
2022-10-31T18:56:31.762Z,61.22
2022-10-31T18:59:03.511Z,117.75
2022-10-31T19:01:33.687Z,71.43
2022-10-31T19:04:01.397Z,108.65
2022-10-31T19:06:32.025Z,55.00
2022-10-31T19:09:01.443Z,50.38
2022-10-31T19:11:31.428Z,49.25
2022-10-31T19:13:58.622Z,48.63
2022-10-31T19:16:25.932Z,48.47
2022-10-31T19:18:58.587Z,47.85
2022-10-31T19:21:26.349Z,44.08
2022-10-31T19:23:57.299Z,43.13
2022-10-31T19:26:26.129Z,47.47
2022-10-31T19:28:56.409Z,48.55
2022-10-31T19:31:27.693Z,47.00
2022-10-31T19:34:02.277Z,45.30
2022-10-31T19:36:29.664Z,46.70
2022-10-31T19:38:56.918Z,48.90
2022-10-31T19:41:27.096Z,47.00
2022-10-31T19:43:59.797Z,49.17
2022-10-31T19:46:48.210Z,45.83
2022-10-31T19:49:14.990Z,47.17
2022-10-31T19:51:42.300Z,46.38
2022-10-31T19:54:10.821Z,47.83
2022-10-31T19:56:38.164Z,47.15
2022-10-31T19:59:08.110Z,45.15
2022-10-31T20:01:36.030Z,47.85
2022-10-31T20:04:03.490Z,46.65
2022-10-31T20:06:31.932Z,44.70
2022-10-31T20:09:03.725Z,47.30
2022-10-31T20:11:31.531Z,47.90
2022-10-31T20:13:59.642Z,51.38
2022-10-31T20:16:29.976Z,49.20
2022-10-31T20:18:59.524Z,51.78
2022-10-31T20:21:30.848Z,57.75
2022-10-31T20:24:02.780Z,60.17
2022-10-31T20:26:31.775Z,63.75
2022-10-31T20:29:04.188Z,63.95
2022-10-31T20:31:39.973Z,65.43
2022-10-31T20:34:09.646Z,69.85
2022-10-31T20:36:39.641Z,65.63
2022-10-31T20:39:06.821Z,65.65
2022-10-31T20:41:38.009Z,71.30
2022-10-31T20:44:07.839Z,67.70
2022-10-31T20:46:35.221Z,68.65
2022-10-31T20:49:04.757Z,68.40
2022-10-31T20:51:32.132Z,71.20
2022-10-31T20:54:01.930Z,69.47
2022-10-31T20:56:36.065Z,66.68
2022-10-31T20:59:03.477Z,69.38
2022-10-31T21:01:33.392Z,67.18
2022-10-31T21:04:00.680Z,67.25
2022-10-31T21:06:30.039Z,68.50
2022-10-31T21:08:57.795Z,61.28
2022-10-31T21:11:29.696Z,63.15
2022-10-31T21:13:59.795Z,62.15
2022-10-31T21:16:29.980Z,63.15
2022-10-31T21:18:59.316Z,63.13
2022-10-31T21:21:32.752Z,73.18
2022-10-31T21:24:10.552Z,68.20
2022-10-31T21:26:45.068Z,75.90
2022-10-31T21:29:15.689Z,70.93
2022-10-31T21:31:43.933Z,65.63
2022-10-31T21:34:11.711Z,60.03
2022-10-31T21:36:42.267Z,57.53
2022-10-31T21:39:11.707Z,59.95
2022-10-31T21:41:41.434Z,55.85
2022-10-31T21:44:10.555Z,55.70
2022-10-31T21:46:38.737Z,53.08
2022-10-31T21:49:08.258Z,56.00
2022-10-31T21:51:36.821Z,73.55
2022-10-31T21:54:23.153Z,60.28
2022-10-31T21:56:51.690Z,62.95
2022-10-31T21:59:19.159Z,56.83
2022-10-31T22:01:49.329Z,57.33
2022-10-31T22:04:17.067Z,57.92
2022-10-31T22:06:44.671Z,53.92
2022-10-31T22:09:15.141Z,54.63
2022-10-31T22:11:43.128Z,55.38
2022-10-31T22:14:14.265Z,53.25
2022-10-31T22:16:48.421Z,57.75
2022-10-31T22:19:20.504Z,54.90
2022-10-31T22:21:52.344Z,54.05
2022-10-31T22:24:19.829Z,58.05
2022-10-31T22:26:47.295Z,54.90
2022-10-31T22:29:23.054Z,51.75
2022-10-31T22:31:57.240Z,49.03
2022-10-31T22:34:26.948Z,51.63
2022-10-31T22:36:56.148Z,49.42
2022-10-31T22:39:25.830Z,67.05
2022-10-31T22:41:55.220Z,50.25
2022-10-31T22:44:22.371Z,46.95
2022-10-31T22:46:49.629Z,47.38
2022-10-31T22:49:16.788Z,48.03
2022-10-31T22:51:44.677Z,47.10
2022-10-31T22:54:14.109Z,45.25
2022-10-31T22:56:41.391Z,42.65
2022-10-31T22:59:15.409Z,44.05
2022-10-31T23:01:45.627Z,42.25
2022-10-31T23:04:16.485Z,44.83
2022-10-31T23:06:44.869Z,45.17
2022-10-31T23:09:15.431Z,43.80
2022-10-31T23:11:45.639Z,43.22
2022-10-31T23:14:18.620Z,46.22
2022-10-31T23:16:53.867Z,44.38
2022-10-31T23:19:22.728Z,41.95
2022-10-31T23:21:57.562Z,43.70
2022-10-31T23:27:07.282Z,41.95
2022-10-31T23:29:54.556Z,39.63
2022-10-31T23:32:38.406Z,41.78
2022-10-31T23:35:10.199Z,40.78
2022-10-31T23:40:08.912Z,38.08
2022-10-31T23:42:38.527Z,38.03
2022-10-31T23:45:06.055Z,37.55
2022-10-31T23:47:33.841Z,36.53
2022-10-31T23:50:01.013Z,38.08
2022-10-31T23:52:28.350Z,35.13
2022-10-31T23:54:55.460Z,35.88
2022-10-31T23:57:22.919Z,34.67
2022-10-31T23:59:52.612Z,36.00
